Погода Пирапорана неделю

Минас-Жерайс, Бразилия

21 - 27 июля
  • 21июля
    Сегодня
    +16°
    +30°
    Ясно и безоблачно
    ВремяПогодаТемператураВлажностьДавлениеВетер, м/сВероятность осадков
    00:00Ясно и безоблачно+20°C54 %720 мм0.8 м/с5 %
    03:00Ясно и безоблачно+17°C65 %720 мм1.6 м/с5 %
    06:00Ясно и безоблачно+16°C67 %720 мм1.1 м/с5 %
    09:00Ясно и безоблачно+21°C49 %722 мм1.5 м/с5 %
    12:00Ясно и безоблачно+27°C30 %722 мм3.8 м/с5 %
    15:00Ясно и безоблачно+29°C31 %720 мм3.5 м/с5 %
    18:00Ясно и безоблачно+26°C41 %720 мм2.6 м/с5 %
    21:00Ясно и безоблачно+22°C50 %721 мм2.4 м/с5 %
  • 22июля
    Понедельник
    +16°
    +31°
    Ясно и безоблачно
    ВремяПогодаТемператураВлажностьДавлениеВетер, м/сВероятность осадков
    00:00Ясно и безоблачно+19°C60 %721 мм2.1 м/с5 %
    03:00Ясно и безоблачно+18°C68 %720 мм1.3 м/с5 %
    06:00Ясно и безоблачно+16°C81 %721 мм1.4 м/с5 %
    09:00Ясно и безоблачно+21°C60 %723 мм2.2 м/с5 %
    12:00Ясно и безоблачно+27°C37 %722 мм2.1 м/с5 %
    15:00Ясно и безоблачно+30°C31 %720 мм1.7 м/с5 %
    18:00Ясно и безоблачно+26°C41 %720 мм2.0 м/с5 %
    21:00Ясно и безоблачно+22°C43 %721 мм2.4 м/с5 %
  • 23июля
    Вторник
    +15°
    +32°
    Ясно и безоблачно
    ВремяПогодаТемператураВлажностьДавлениеВетер, м/сВероятность осадков
    00:00Ясно и безоблачно+20°C52 %721 мм0.5 м/с5 %
    03:00Ясно и безоблачно+19°C57 %720 мм1.2 м/с5 %
    06:00Ясно и безоблачно+17°C66 %721 мм1.0 м/с5 %
    09:00Ясно и безоблачно+22°C48 %723 мм1.5 м/с5 %
    12:00Ясно и безоблачно+28°C28 %722 мм2.5 м/с5 %
    15:00Ясно и безоблачно+31°C21 %720 мм2.6 м/с5 %
    18:00Ясно и безоблачно+26°C26 %720 мм2.7 м/с5 %
    21:00Ясно и безоблачно+24°C38 %721 мм3.2 м/с5 %
  • 24июля
    Среда
    +14°
    +30°
    Небольшая облачность
    ВремяПогодаТемператураВлажностьДавлениеВетер, м/сВероятность осадков
    00:00Ясно и безоблачно+21°C51 %722 мм2.9 м/с5 %
    03:00Ясно и безоблачно+18°C63 %721 мм2.0 м/с5 %
    06:00Ясно и безоблачно+16°C69 %721 мм2.0 м/с5 %
    09:00Ясно и безоблачно+21°C53 %723 мм3.5 м/с5 %
    12:00Практически безоблачно+27°C31 %723 мм3.7 м/с5 %
    15:00Небольшая облачность+30°C24 %721 мм2.6 м/с5 %
    18:00Небольшая облачность+26°C30 %721 мм2.3 м/с5 %
    21:00Облачно с прояснениями+22°C39 %722 мм2.6 м/с5 %
Мы используем cookies
Соглашаюсь